Portada
METAR-TAF:

METAR-TAF

Aeroports :

Plataforma petroliera

K14-fa-1c, Països Baixos

latitud: 53-16-10N, longitud: 3-37-40E, altitud: 28 m

Observació

L'informe es va fer fa 28 minuts, a les 15:55 UTC
Vent 25 kt del Oest/Sud-Oest
Temperatura 10°C
Humitat 82%
Pressió 1010 hPa
Visibilitat 10 km o més
Escasses núvols a una alçada de 1300 ft
Cel cobert a una alçada de 3500 ft

METAR: EHKV 071555Z AUTO 25025KT 9999 FEW013 OVC035 10/07 Q1010 W///H///

Hora: 17:23 (16:23 UTC)


TAF: manca

Observacions i pronòstics meteorològics de més de 4000 aeroports (METAR i TAF).

Les estacions disponibles són els punts grocs i vermells al mapa.

Posi el ratolí al punt desitjat per veure el nom de l'estació.

Feu clic per veure les observacions i els pronòstics meteorològics.

Per canviar el mapa: feu clic els botons verds amb una creu de color negre per apropar; al botó verd amb un guió per allunyar la imatge; o en les fletxes verdes per a mapes adjacents.


METAR-TAF: